メインページ
METAR-TAF:

METAR-TAF

空港 :

キュラソー島, オランダ領アンティル

ハト国際空港

緯度: 12-12N, 経度: 068-58W, 海抜: 9m

現時点の気象観測

当レポートは1時間18分前の05:00(UTC)に作成
気温 26°C
湿度 89%
気圧 1013 hPa
視程10km以上
高度1700ftの雲はほとんどない

METAR: TNCC 280500Z 1100KT 9999 FEW017 26/24 Q1013 NOSIG

時間: 02:18 (06:18 UTC)

予報

当レポートは2時間28分前の03:50(UTC)に作成
予報は28日の 06時(UTC)から 29日の 06時(UTC)まで有効
の風 8kt
視程10km以上
高度1800ftの雲は散在している
28日の 10時(UTC)から 28日の 16時(UTC)まで一時的に
高度1400ftの千切れ雲あり

TAF: TNCC 280350Z 2806/2906 09008KT 9999 SCT018 TEMPO 2810/2816 BKN014

4,000以上の空港の気象観測と天気予報(METAR報とTAF報)

利用可能な観測所は地図上に黄色い丸と赤い丸で示す。

丸の上にカーソルを重ねると観測所名を参照できる。

次にクリックすると気象観測と天気予報を参照できる。

マップの切り替え:黒色「×」印の緑ボタンをクリックして拡大、「-」印の緑ボタンをクリックして縮小、緑色の三角印をクリックして隣りの地図に切り替え


METAR-TAF: